Time;durP1;ratioP1;P1;durP2;ratioP2;P2;SDS_P1;SDS_P2;PMS_P1;PMS_P2;Temp;Humidity;BMP_temperature;BMP_pressure;BME280_temperature;BME280_humidity;BME280_pressure;Samples;Min_cycle;Max_cycle;Signal;HPM_P1;HPM_P2
2022/12/06 00:01:18;;;;;;;4.43;4.00;;;;;;;4.80;100.00;102156.72;6280479;22;20087;-76
2022/12/06 00:03:49;;;;;;;5.45;4.03;;;;;;;4.81;100.00;102164.22;6251344;22;20020;-76
2022/12/06 00:06:18;;;;;;;11.57;4.45;;;;;;;4.80;100.00;102162.72;6280556;22;20023;-75
2022/12/06 00:08:46;;;;;;;8.50;4.07;;;;;;;4.80;100.00;102160.06;6279644;22;20044;-75
2022/12/06 00:11:22;;;;;;;6.60;4.45;;;;;;;4.80;100.00;102157.44;6280463;22;20016;-75
2022/12/06 00:13:57;;;;;;;4.47;3.72;;;;;;;4.78;100.00;102154.44;6252353;22;20016;-75
2022/12/06 00:16:24;;;;;;;5.57;4.18;;;;;;;4.81;100.00;102166.13;6279918;22;20446;-74
2022/12/06 00:18:52;;;;;;;4.97;3.92;;;;;;;4.80;100.00;102159.34;6279499;22;20034;-75
2022/12/06 00:21:23;;;;;;;5.38;3.97;;;;;;;4.78;100.00;102165.00;6280369;22;20008;-75
2022/12/06 00:23:55;;;;;;;7.40;3.90;;;;;;;4.78;100.00;102169.50;6279995;22;20019;-75
2022/12/06 00:26:22;;;;;;;5.30;3.60;;;;;;;4.76;100.00;102161.97;6280346;22;20398;-75
2022/12/06 00:28:52;;;;;;;7.32;4.30;;;;;;;4.76;100.00;102159.31;6279949;22;20060;-75
2022/12/06 00:31:21;;;;;;;4.88;3.85;;;;;;;4.77;100.00;102160.06;6280426;22;20035;-75
2022/12/06 00:33:48;;;;;;;6.60;4.25;;;;;;;4.76;100.00;102164.59;6278893;22;20020;-75
2022/12/06 00:36:18;;;;;;;11.02;3.60;;;;;;;4.75;100.00;102159.69;6280138;22;20027;-75
2022/12/06 00:38:45;;;;;;;5.65;3.78;;;;;;;4.72;100.00;102163.81;6279490;22;20480;-75
2022/12/06 00:41:14;;;;;;;7.10;4.15;;;;;;;4.71;100.00;102170.19;6280415;22;20067;-75
2022/12/06 00:43:41;;;;;;;7.68;3.80;;;;;;;4.71;100.00;102170.19;6279248;22;20023;-75
2022/12/06 00:46:12;;;;;;;8.57;4.22;;;;;;;4.70;100.00;102166.03;6280016;22;20036;-75
2022/12/06 00:48:39;;;;;;;4.32;3.92;;;;;;;4.71;100.00;102164.16;6252045;22;20044;-74
2022/12/06 00:51:05;;;;;;;6.78;3.67;;;;;;;4.71;100.00;102161.53;6280322;22;20040;-75
2022/12/06 00:53:32;;;;;;;9.35;3.78;;;;;;;4.71;100.00;102164.94;6279771;22;20020;-75
2022/12/06 00:55:58;;;;;;;8.18;4.20;;;;;;;4.70;100.00;102160.78;6279892;22;20023;-77
2022/12/06 00:58:25;;;;;;;7.70;3.55;;;;;;;4.69;100.00;102161.91;6279960;22;20047;-74
2022/12/06 01:00:52;;;;;;;5.15;4.03;;;;;;;4.71;100.00;102166.81;6279852;22;20044;-74
2022/12/06 01:03:19;;;;;;;5.10;3.78;;;;;;;4.71;100.00;102169.44;6279741;22;20067;-77
2022/12/06 01:05:48;;;;;;;7.20;3.67;;;;;;;4.71;100.00;102166.81;6279616;22;20074;-77
2022/12/06 01:08:16;;;;;;;10.55;4.00;;;;;;;4.69;100.00;102162.66;6280314;22;20377;-77
2022/12/06 01:10:53;;;;;;;10.82;3.60;;;;;;;4.72;100.00;102170.97;6279468;22;20017;-74
2022/12/06 01:13:20;;;;;;;6.10;3.80;;;;;;;4.73;100.00;102167.19;6280437;22;20499;-75
2022/12/06 01:15:46;;;;;;;4.78;3.45;;;;;;;4.74;100.00;102168.72;6279349;22;20020;-74
2022/12/06 01:18:13;;;;;;;6.68;3.42;;;;;;;4.74;100.00;102169.47;6226916;22;20026;-77
2022/12/06 01:20:39;;;;;;;5.43;3.90;;;;;;;4.72;100.00;102163.81;6279368;22;20048;-74
2022/12/06 01:23:06;;;;;;;8.98;3.85;;;;;;;4.72;100.00;102161.16;6279894;22;20416;-75
2022/12/06 01:25:32;;;;;;;9.32;4.15;;;;;;;4.72;100.00;102160.41;6279695;22;20017;-75
2022/12/06 01:28:02;;;;;;;10.80;3.58;;;;;;;4.71;100.00;102164.94;6280300;22;20071;-75
2022/12/06 01:30:28;;;;;;;7.07;3.67;;;;;;;4.71;100.00;102164.94;6279558;22;20019;-74
2022/12/06 01:32:55;;;;;;;5.50;3.50;;;;;;;4.72;100.00;102160.41;6278625;22;20016;-74
2022/12/06 01:35:21;;;;;;;8.32;4.10;;;;;;;4.70;100.00;102160.78;6280048;22;20020;-74
2022/12/06 01:37:48;;;;;;;9.30;3.58;;;;;;;4.68;100.00;102169.06;6279715;22;20372;-75
2022/12/06 01:40:15;;;;;;;13.90;4.78;;;;;;;4.68;100.00;102163.78;6252693;22;20074;-74
2022/12/06 01:42:41;;;;;;;6.13;3.17;;;;;;;4.67;100.00;102162.25;6279405;22;20032;-75
2022/12/06 01:45:08;;;;;;;7.40;3.80;;;;;;;4.67;100.00;102161.50;6279604;22;20470;-74
2022/12/06 01:47:42;;;;;;;6.78;3.65;;;;;;;4.67;100.00;102159.63;6251778;22;20027;-74
2022/12/06 01:50:17;;;;;;;5.05;3.55;;;;;;;4.69;100.00;102153.97;6280006;22;20043;-76
2022/12/06 01:52:50;;;;;;;9.35;3.55;;;;;;;4.69;100.00;102153.97;6251993;22;20020;-75
2022/12/06 01:55:19;;;;;;;6.85;3.40;;;;;;;4.69;100.00;102149.47;6279962;22;20020;-75
2022/12/06 01:57:47;;;;;;;6.05;3.45;;;;;;;4.67;100.00;102146.44;6252164;22;20437;-75
2022/12/06 02:00:14;;;;;;;4.50;3.45;;;;;;;4.67;100.00;102135.88;6279367;22;20023;-75
2022/12/06 02:02:40;;;;;;;10.15;3.28;;;;;;;4.66;100.00;102137.00;6279032;22;20019;-77
2022/12/06 02:05:07;;;;;;;5.05;2.97;;;;;;;4.65;100.00;102140.75;6279916;22;20512;-75
2022/12/06 02:07:34;;;;;;;5.90;3.00;;;;;;;4.64;100.00;102141.13;6252035;22;20020;-75
2022/12/06 02:10:02;;;;;;;8.55;3.13;;;;;;;4.64;100.00;102143.75;6279787;22;20091;-75
2022/12/06 02:12:28;;;;;;;9.27;3.05;;;;;;;4.60;100.00;102137.69;6279386;22;20413;-75
2022/12/06 02:14:55;;;;;;;8.90;3.22;;;;;;;4.58;100.00;102137.28;6279014;22;20390;-75
2022/12/06 02:17:48;;;;;;;9.63;3.15;;;;;;;4.56;100.00;102137.66;6252284;22;20020;-75
2022/12/06 02:20:30;;;;;;;11.13;2.95;;;;;;;4.54;100.00;102139.13;6279965;22;20090;-75
2022/12/06 02:23:29;;;;;;;5.47;3.20;;;;;;;4.52;100.00;102136.88;6279431;22;20465;-75
2022/12/06 02:26:04;;;;;;;7.15;3.28;;;;;;;4.49;100.00;102142.09;6252340;22;20020;-75
2022/12/06 02:28:52;;;;;;;3.20;2.90;;;;;;;4.45;100.00;102136.03;6279572;22;20021;-76
2022/12/06 02:32:14;;;;;;;3.60;3.10;;;;;;;4.44;100.00;102134.53;6279800;22;20044;-76
2022/12/06 02:34:59;;;;;;;4.65;2.92;;;;;;;4.43;100.00;102133.75;6045889;23;20051;-76
2022/12/06 02:37:33;;;;;;;3.00;2.30;;;;;;;4.43;100.00;102136.41;6125310;23;20576;-76
2022/12/06 02:40:12;;;;;;;8.10;3.30;;;;;;;4.42;100.00;102132.25;6125250;23;20520;-75
2022/12/06 02:42:49;;;;;;;5.55;2.80;;;;;;;4.40;100.00;102137.13;6125317;23;20026;-76
2022/12/06 02:45:23;;;;;;;4.22;2.78;;;;;;;4.41;100.00;102140.53;6125445;23;20018;-75
2022/12/06 02:47:52;;;;;;;4.13;3.00;;;;;;;4.40;100.00;102136.41;6126874;23;20026;-76
2022/12/06 02:50:25;;;;;;;10.50;2.85;;;;;;;4.40;100.00;102131.84;6126834;23;20046;-76
2022/12/06 02:52:53;;;;;;;7.88;2.67;;;;;;;4.39;100.00;102137.50;6126451;23;20026;-76
2022/12/06 02:55:22;;;;;;;5.40;2.50;;;;;;;4.39;100.00;102138.28;6126869;23;20023;-76
2022/12/06 02:57:51;;;;;;;5.95;2.58;;;;;;;4.39;100.00;102138.28;6125719;23;20061;-76
2022/12/06 03:00:27;;;;;;;4.80;2.20;;;;;;;4.39;100.00;102132.25;6126701;23;20468;-76
2022/12/06 03:03:11;;;;;;;3.60;2.75;;;;;;;4.39;100.00;102138.28;6126480;23;20023;-76
2022/12/06 03:05:47;;;;;;;4.55;2.63;;;;;;;4.40;100.00;102139.03;6101167;23;20110;-76
2022/12/06 03:08:42;;;;;;;9.68;2.80;;;;;;;4.39;100.00;102135.63;6126763;23;20026;-76
2022/12/06 03:11:09;;;;;;;3.20;2.22;;;;;;;4.39;100.00;102137.50;6169246;22;20024;-76
2022/12/06 03:14:06;;;;;;;3.25;2.28;;;;;;;4.38;100.00;102139.41;6248556;22;20020;-76
2022/12/06 03:16:46;;;;;;;4.43;2.53;;;;;;;4.40;100.00;102134.50;6222250;22;20013;-76
2022/12/06 03:19:21;;;;;;;6.43;2.40;;;;;;;4.38;100.00;102134.13;6249736;22;20099;-76
2022/12/06 03:22:01;;;;;;;7.57;2.30;;;;;;;4.39;100.00;102126.97;6249542;22;20065;-75
2022/12/06 03:24:32;;;;;;;2.53;2.08;;;;;;;4.40;100.00;102131.13;6249496;22;20017;-76
2022/12/06 03:27:03;;;;;;;5.75;2.15;;;;;;;4.39;100.00;102132.25;6248791;22;20032;-75
2022/12/06 03:29:34;;;;;;;3.75;2.47;;;;;;;4.37;100.00;102126.56;6249498;22;20447;-75
2022/12/06 03:32:03;;;;;;;1.65;1.55;;;;;;;4.34;100.00;102126.19;6249789;22;20013;-75
2022/12/06 03:34:47;;;;;;;6.68;2.40;;;;;;;4.34;100.00;102130.69;6249338;22;20016;-75
2022/12/06 03:37:20;;;;;;;3.13;2.03;;;;;;;4.34;100.00;102131.44;6249608;22;20017;-75
2022/12/06 03:39:52;;;;;;;5.88;2.20;;;;;;;4.35;100.00;102129.56;6222150;22;20020;-76
2022/12/06 03:42:19;;;;;;;3.20;2.28;;;;;;;4.35;100.00;102129.56;6249178;22;20047;-76
2022/12/06 03:44:46;;;;;;;2.85;2.15;;;;;;;4.37;100.00;102127.34;6256841;22;20020;-76
2022/12/06 03:47:36;;;;;;;3.40;2.20;;;;;;;4.38;100.00;102122.81;6280489;22;20381;-75
2022/12/06 03:50:09;;;;;;;6.50;2.33;;;;;;;4.36;100.00;102120.53;6252737;22;20016;-76
2022/12/06 03:52:37;;;;;;;5.85;2.13;;;;;;;4.35;100.00;102130.31;6228279;22;20339;-76
2022/12/06 03:55:04;;;;;;;8.45;2.10;;;;;;;4.35;100.00;102124.28;6280358;22;20099;-76
2022/12/06 03:57:30;;;;;;;2.13;1.73;;;;;;;4.35;100.00;102114.50;6279298;22;20477;-76
2022/12/06 03:59:57;;;;;;;3.05;1.92;;;;;;;4.33;100.00;102119.38;6280086;22;20050;-76
2022/12/06 04:02:24;;;;;;;4.35;2.28;;;;;;;4.35;100.00;102121.66;6280141;22;20012;-76
2022/12/06 04:04:50;;;;;;;2.00;1.83;;;;;;;4.34;100.00;102118.25;6280188;22;20047;-76
2022/12/06 04:07:20;;;;;;;2.97;1.85;;;;;;;4.34;100.00;102128.81;6280425;22;20020;-76
2022/12/06 04:10:01;;;;;;;4.43;2.17;;;;;;;4.34;100.00;102120.91;6252288;22;20020;-77
2022/12/06 04:15:16;;;;;;;4.07;1.83;;;;;;;4.36;100.00;102128.44;6280338;22;20712;-76
2022/12/06 04:23:02;;;;;;;3.00;2.03;;;;;;;4.35;100.00;102132.22;6252618;22;20521;-76
2022/12/06 04:23:17;;;;;;;2.28;1.70;;;;;;;4.33;100.00;102124.66;6280006;22;20629;-76
2022/12/06 04:25:43;;;;;;;2.00;1.63;;;;;;;4.34;100.00;102118.25;6251563;22;20536;-76
2022/12/06 04:39:17;;;;;;;2.05;1.77;;;;;;;4.37;100.00;102123.94;6279583;22;20035;-76
2022/12/06 04:44:32;;;;;;;2.28;1.70;;;;;;;4.35;100.00;102126.94;6279561;22;20016;-77
2022/12/06 04:46:58;;;;;;;2.72;1.92;;;;;;;4.33;100.00;102116.75;6252931;22;20464;-76
2022/12/06 04:49:25;;;;;;;7.75;2.33;;;;;;;4.33;100.00;102122.03;6279820;22;20082;-76
2022/12/06 04:51:53;;;;;;;6.63;2.00;;;;;;;4.33;100.00;102114.13;6279928;22;20465;-76
2022/12/06 04:54:22;;;;;;;1.50;1.40;;;;;;;4.32;100.00;102117.09;6279661;22;20417;-76
2022/12/06 04:56:48;;;;;;;3.38;1.90;;;;;;;4.30;100.00;102120.09;6279834;22;20070;-76
2022/12/06 04:59:15;;;;;;;1.95;1.58;;;;;;;4.32;100.00;102111.84;6280083;22;20024;-77
2022/12/06 05:01:41;;;;;;;2.53;1.58;;;;;;;4.29;100.00;102115.94;6279430;22;20071;-77
2022/12/06 05:04:08;;;;;;;1.77;1.50;;;;;;;4.27;100.00;102110.28;6280090;22;20461;-76
2022/12/06 05:06:34;;;;;;;1.80;1.70;;;;;;;4.28;100.00;102114.44;6279540;22;20022;-76
2022/12/06 05:09:02;;;;;;;8.68;2.05;;;;;;;4.27;100.00;102115.56;6279285;22;20492;-77
2022/12/06 05:11:28;;;;;;;1.75;1.63;;;;;;;4.26;100.00;102111.41;6252816;22;20017;-76
2022/12/06 05:13:55;;;;;;;1.70;1.50;;;;;;;4.26;100.00;102103.50;6252340;22;20413;-76
2022/12/06 05:16:21;;;;;;;3.10;1.50;;;;;;;4.26;100.00;102108.75;6280191;22;20016;-76
2022/12/06 05:18:48;;;;;;;6.78;1.70;;;;;;;4.26;100.00;102100.84;6279650;22;20492;-77
2022/12/06 05:21:18;;;;;;;5.05;1.85;;;;;;;4.25;100.00;102104.63;6280118;22;20016;-76
2022/12/06 05:23:45;;;;;;;2.35;1.52;;;;;;;4.23;100.00;102101.59;6251650;22;20075;-77
2022/12/06 05:26:17;;;;;;;3.50;1.38;;;;;;;4.23;100.00;102104.22;6252619;22;20024;-76
2022/12/06 05:28:45;;;;;;;1.50;1.38;;;;;;;4.23;100.00;102103.47;6279499;22;20091;-76
2022/12/06 05:31:12;;;;;;;1.90;1.55;;;;;;;4.24;100.00;102115.53;6279971;22;20158;-76
2022/12/06 05:33:39;;;;;;;1.58;1.40;;;;;;;4.21;100.00;102108.34;6251713;22;20023;-76
2022/12/06 05:36:18;;;;;;;1.67;1.50;;;;;;;4.21;100.00;102110.97;6280103;22;20513;-76
2022/12/06 05:38:46;;;;;;;2.85;1.52;;;;;;;4.20;100.00;102107.56;6278499;22;20102;-76
2022/12/06 05:41:19;;;;;;;3.28;1.70;;;;;;;4.20;100.00;102109.44;6280079;22;20017;-76
2022/12/06 05:43:45;;;;;;;9.00;1.80;;;;;;;4.21;100.00;102105.69;6279578;22;20035;-76
2022/12/06 05:46:12;;;;;;;5.30;2.15;;;;;;;4.21;100.00;102108.34;6279477;22;20016;-77
2022/12/06 05:48:39;;;;;;;3.90;1.50;;;;;;;4.20;100.00;102107.56;6279238;22;20417;-77
2022/12/06 05:51:06;;;;;;;1.83;1.70;;;;;;;4.20;100.00;102107.56;6280043;22;20108;-76
2022/12/06 05:53:32;;;;;;;1.70;1.40;;;;;;;4.20;100.00;102104.94;6278922;22;20452;-76
2022/12/06 05:56:07;;;;;;;3.53;1.63;;;;;;;4.20;100.00;102109.44;6252268;22;20051;-76
2022/12/06 05:58:35;;;;;;;5.78;1.52;;;;;;;4.19;100.00;102107.94;6279517;22;20024;-76
2022/12/06 06:01:03;;;;;;;7.40;1.85;;;;;;;4.18;100.00;102109.81;6252393;22;20078;-76
2022/12/06 06:03:30;;;;;;;6.38;2.17;;;;;;;4.17;100.00;102105.66;6279480;22;20075;-76
2022/12/06 06:05:58;;;;;;;5.70;1.88;;;;;;;4.16;100.00;102108.66;6252106;22;20012;-76
2022/12/06 06:08:26;;;;;;;3.28;1.85;;;;;;;4.15;100.00;102117.69;6278870;22;20013;-76
2022/12/06 06:10:53;;;;;;;5.47;1.52;;;;;;;4.14;100.00;102113.53;6279491;22;20103;-76
2022/12/06 06:13:20;;;;;;;2.42;1.95;;;;;;;4.13;100.00;102115.41;6252943;22;20039;-76
2022/12/06 06:15:48;;;;;;;4.13;1.65;;;;;;;4.13;100.00;102110.13;6279140;22;20091;-76
2022/12/06 06:18:16;;;;;;;4.43;1.67;;;;;;;4.11;100.00;102108.97;6279521;22;20020;-76
2022/12/06 06:20:55;;;;;;;5.05;1.80;;;;;;;4.09;100.00;102106.69;6279136;22;20382;-76
2022/12/06 06:23:23;;;;;;;1.63;1.50;;;;;;;4.07;100.00;102108.94;6252434;22;20016;-76
2022/12/06 06:25:49;;;;;;;4.35;1.50;;;;;;;4.07;100.00;102110.81;6279280;22;20019;-76
2022/12/06 06:28:17;;;;;;;2.00;1.73;;;;;;;4.05;100.00;102110.41;6279564;22;20012;-76
2022/12/06 06:30:44;;;;;;;2.42;1.52;;;;;;;4.04;100.00;102112.28;6278779;22;20017;-76
2022/12/06 06:33:10;;;;;;;2.10;1.30;;;;;;;4.03;100.00;102103.63;6279571;22;20095;-76
2022/12/06 06:35:38;;;;;;;6.50;1.60;;;;;;;4.03;100.00;102111.53;6250868;22;20099;-76
2022/12/06 06:38:05;;;;;;;3.92;1.80;;;;;;;4.02;100.00;102107.38;6279422;22;20119;-76
2022/12/06 06:40:32;;;;;;;4.60;1.95;;;;;;;4.00;100.00;102101.72;6279280;22;20016;-76
2022/12/06 06:43:16;;;;;;;2.47;1.42;;;;;;;4.00;100.00;102104.34;6279107;22;20506;-76
2022/12/06 06:45:51;;;;;;;2.15;1.58;;;;;;;4.02;100.00;102109.25;6278576;22;20017;-76
2022/12/06 06:48:17;;;;;;;2.75;1.77;;;;;;;4.02;100.00;102104.75;6279566;22;20024;-76
2022/12/06 06:50:44;;;;;;;1.65;1.55;;;;;;;4.03;100.00;102103.63;6278097;22;20047;-76
2022/12/06 06:53:11;;;;;;;4.07;2.00;;;;;;;4.05;100.00;102108.53;6279552;22;20093;-76
2022/12/06 06:55:37;;;;;;;3.30;1.70;;;;;;;4.05;100.00;102105.91;6278674;22;20016;-76
2022/12/06 06:58:04;;;;;;;2.90;1.70;;;;;;;4.06;100.00;102106.66;6279268;22;20019;-76
2022/12/06 07:00:32;;;;;;;2.33;1.80;;;;;;;4.07;100.00;102105.53;6279209;22;20016;-76
2022/12/06 07:02:58;;;;;;;3.17;1.77;;;;;;;4.04;100.00;102104.38;6278982;22;20020;-76
2022/12/06 07:05:26;;;;;;;4.05;1.80;;;;;;;4.04;100.00;102107.03;6278363;22;20067;-76
2022/12/06 07:07:53;;;;;;;3.67;1.50;;;;;;;4.01;100.00;102103.22;6279264;22;20548;-76
2022/12/06 07:10:19;;;;;;;3.22;1.85;;;;;;;3.99;100.00;102108.13;6279725;22;20020;-76
2022/12/06 07:12:46;;;;;;;6.60;2.10;;;;;;;3.95;100.00;102104.69;6279376;22;20096;-77
2022/12/06 07:15:12;;;;;;;1.88;1.60;;;;;;;3.92;100.00;102100.16;6279967;22;20008;-76
2022/12/06 07:17:39;;;;;;;2.75;1.80;;;;;;;3.89;100.00;102102.75;6279503;22;20016;-76
2022/12/06 07:20:06;;;;;;;2.10;1.90;;;;;;;3.83;100.00;102094.41;6279165;22;20024;-76
2022/12/06 07:22:32;;;;;;;1.88;1.77;;;;;;;3.74;100.00;102098.41;6252503;22;20009;-75
2022/12/06 07:24:59;;;;;;;3.70;2.10;;;;;;;3.66;100.00;102100.22;6280073;22;20020;-78
2022/12/06 07:27:26;;;;;;;11.35;4.47;;;;;;;3.57;100.00;102089.97;6279750;22;20027;-77
2022/12/06 07:29:52;;;;;;;5.93;3.47;;;;;;;3.50;100.00;102097.03;6279846;22;20055;-76
2022/12/06 07:32:18;;;;;;;10.63;4.20;;;;;;;3.42;100.00;102087.50;6253648;22;20396;-75
2022/12/06 07:34:45;;;;;;;5.55;3.65;;;;;;;3.37;100.00;102095.72;6280292;22;20020;-76
2022/12/06 07:37:11;;;;;;;8.48;3.22;;;;;;;3.34;100.00;102099.81;6228489;22;20514;-75
2022/12/06 07:39:38;;;;;;;5.15;3.30;;;;;;;3.29;100.00;102108.03;6280877;22;20091;-76
2022/12/06 07:45:00;;;;;;;4.22;2.83;;;;;;;3.24;100.00;102103.06;6279190;22;20020;-78
2022/12/06 07:47:37;;;;;;;4.43;2.58;;;;;;;3.20;100.00;102097.03;6228509;22;20095;-78
2022/12/06 07:50:06;;;;;;;5.10;2.40;;;;;;;3.17;100.00;102113.50;6280676;22;20016;-79
2022/12/06 07:52:34;;;;;;;4.40;1.88;;;;;;;3.12;100.00;102101.41;6279422;22;20019;-78
2022/12/06 07:55:01;;;;;;;6.55;1.92;;;;;;;3.10;100.00;102122.06;6281041;22;20036;-78
2022/12/06 07:57:27;;;;;;;3.53;1.77;;;;;;;3.09;100.00;102119.78;6253775;22;20046;-78
2022/12/06 07:59:54;;;;;;;1.77;1.67;;;;;;;3.04;100.00;102120.84;6281034;22;20063;-78
2022/12/06 08:02:24;;;;;;;3.22;1.77;;;;;;;3.03;100.00;102113.31;6280515;22;20419;-77
2022/12/06 08:04:51;;;;;;;2.03;1.83;;;;;;;3.00;100.00;102118.16;6281129;22;20074;-77
2022/12/06 08:07:19;;;;;;;1.92;1.83;;;;;;;2.99;100.00;102116.63;6280957;22;20016;-78
2022/12/06 08:09:45;;;;;;;1.90;1.80;;;;;;;2.97;100.00;102121.50;6252551;22;20091;-78
2022/12/06 08:12:12;;;;;;;2.85;2.15;;;;;;;2.92;100.00;102121.78;6281071;22;20012;-77
2022/12/06 08:14:38;;;;;;;5.30;2.08;;;;;;;2.89;100.00;102125.13;6280923;22;20103;-77
2022/12/06 08:17:05;;;;;;;3.33;2.13;;;;;;;2.86;100.00;102127.69;6280446;22;20327;-78
2022/12/06 08:19:32;;;;;;;3.35;2.50;;;;;;;2.81;100.00;102134.00;6253106;22;20021;-77
2022/12/06 08:21:58;;;;;;;2.40;2.20;;;;;;;2.81;100.00;102134.00;6253769;22;20055;-78
2022/12/06 08:24:25;;;;;;;3.67;2.80;;;;;;;2.83;100.00;102120.50;6280802;22;20017;-78
2022/12/06 08:26:52;;;;;;;3.40;2.42;;;;;;;2.83;100.00;102123.91;6254058;22;20013;-78
2022/12/06 08:29:18;;;;;;;4.05;2.70;;;;;;;2.86;100.00;102125.06;6253676;22;20031;-78
2022/12/06 08:31:45;;;;;;;2.75;2.53;;;;;;;2.85;100.00;102126.19;6253076;22;20020;-78
2022/12/06 08:34:12;;;;;;;4.72;2.75;;;;;;;2.84;100.00;102135.94;6281200;22;20021;-78
2022/12/06 08:36:39;;;;;;;2.90;2.55;;;;;;;2.80;100.00;102135.13;6253692;22;20020;-81
2022/12/06 08:39:07;;;;;;;4.20;2.60;;;;;;;2.82;100.00;102137.41;6281017;22;20024;-78
2022/12/06 08:44:18;;;;;;;5.72;2.72;;;;;;;2.82;100.00;102127.63;6280810;22;20617;-78
2022/12/06 08:46:45;;;;;;;2.67;2.47;;;;;;;2.82;100.00;102132.13;6252428;22;20099;-79
2022/12/06 08:49:14;;;;;;;2.83;2.63;;;;;;;2.82;100.00;102135.53;6253814;22;20146;-77
2022/12/06 08:51:41;;;;;;;3.20;2.55;;;;;;;2.83;100.00;102136.28;6280968;22;20054;-81
2022/12/06 08:54:10;;;;;;;2.70;2.45;;;;;;;2.83;100.00;102126.53;6281011;22;20012;-87
2022/12/06 08:56:37;;;;;;;2.78;2.58;;;;;;;2.88;100.00;102128.09;6231050;22;20063;-81
2022/12/06 08:59:03;;;;;;;2.78;2.58;;;;;;;2.92;100.00;102126.28;6255235;22;20047;-83
2022/12/06 09:01:31;;;;;;;5.60;2.65;;;;;;;2.92;100.00;102126.28;6282604;22;20387;-86
2022/12/06 09:04:05;;;;;;;4.32;2.33;;;;;;;2.94;100.00;102124.81;6281729;22;20066;-82
2022/12/06 09:06:32;;;;;;;3.55;2.40;;;;;;;2.99;100.00;102129.78;6280715;22;20012;-79
2022/12/06 09:08:59;;;;;;;5.18;2.70;;;;;;;3.04;100.00;102128.75;6281088;22;20020;-83
2022/12/06 09:11:26;;;;;;;2.90;2.28;;;;;;;3.09;100.00;102128.44;6280154;22;20012;-78
2022/12/06 09:13:52;;;;;;;3.35;3.05;;;;;;;3.14;100.00;102122.88;6281736;22;20040;-83
2022/12/06 09:16:21;;;;;;;4.25;2.78;;;;;;;3.17;100.00;102118.78;6280695;22;20023;-82
2022/12/06 09:18:50;;;;;;;4.13;2.30;;;;;;;3.21;100.00;102124.81;6280585;22;20047;-83
2022/12/06 09:21:24;;;;;;;2.40;2.20;;;;;;;3.23;100.00;102128.63;6253873;22;20071;-80
2022/12/06 09:23:54;;;;;;;3.58;3.28;;;;;;;3.27;100.00;102126.81;6280832;22;20019;-85
2022/12/06 09:26:21;;;;;;;7.10;2.97;;;;;;;3.29;100.00;102126.44;6282872;22;20051;-84
2022/12/06 09:28:49;;;;;;;4.57;3.05;;;;;;;3.33;100.00;102129.88;6280935;22;20114;-82
2022/12/06 09:31:17;;;;;;;12.13;3.60;;;;;;;3.38;100.00;102132.22;6280257;22;20405;-79
2022/12/06 09:33:44;;;;;;;4.60;3.67;;;;;;;3.45;100.00;102134.19;6280729;22;20020;-82
2022/12/06 09:36:33;;;;;;;3.75;3.20;;;;;;;3.50;100.00;102133.88;6280935;22;20071;-78
2022/12/06 09:39:10;;;;;;;7.88;2.80;;;;;;;3.57;100.00;102134.75;6280679;22;20028;-81
2022/12/06 09:41:55;;;;;;;5.00;2.05;;;;;;;3.67;100.00;102125.44;6280428;22;20446;-79
2022/12/06 09:44:48;;;;;;;2.63;1.90;;;;;;;3.82;100.00;102136.91;6280349;22;20091;-78
2022/12/06 09:47:52;;;;;;;2.47;1.88;;;;;;;3.95;100.00;102140.81;6280609;22;20332;-78
2022/12/06 09:50:39;;;;;;;3.58;1.70;;;;;;;4.12;100.00;102134.97;6280782;22;20556;-78
2022/12/06 09:53:27;;;;;;;2.70;1.52;;;;;;;4.24;100.00;102132.09;6280553;22;20027;-76
2022/12/06 09:56:20;;;;;;;3.75;1.90;;;;;;;4.36;100.00;102136.34;6280611;22;20042;-81
2022/12/06 09:59:05;;;;;;;2.60;2.13;;;;;;;4.44;100.00;102131.88;6252566;22;20016;-78
2022/12/06 10:01:56;;;;;;;1.75;1.65;;;;;;;4.50;100.00;102138.34;6280174;22;20450;-77
2022/12/06 10:04:42;;;;;;;215.07;104.70;;;;;;;4.55;100.00;102130.88;6280722;22;20066;-78
2022/12/06 10:07:14;;;;;;;8.85;5.53;;;;;;;4.65;100.00;102132.84;6227657;22;20594;-78
2022/12/06 10:10:06;;;;;;;8.60;2.50;;;;;;;4.70;100.00;102123.84;6280110;22;20016;-80
2022/12/06 10:13:18;;;;;;;6.82;2.00;;;;;;;4.75;100.00;102125.38;6280415;22;20016;-80
2022/12/06 10:15:57;;;;;;;1.43;1.33;;;;;;;4.81;100.00;102118.63;6274465;22;20027;-79
2022/12/06 10:18:46;;;;;;;6.95;1.50;;;;;;;4.85;100.00;102116.78;6280372;22;20665;-81
2022/12/06 10:21:44;;;;;;;4.28;1.65;;;;;;;4.85;100.00;102112.25;6253243;22;20020;-80
2022/12/06 10:24:48;;;;;;;3.10;1.75;;;;;;;4.83;99.98;102111.09;6280628;22;20051;-78
2022/12/06 10:27:38;;;;;;;7.18;1.80;;;;;;;4.85;99.02;102108.84;6280019;22;20094;-78
2022/12/06 10:30:10;;;;;;;2.38;1.75;;;;;;;4.85;99.56;102109.63;6280154;22;20484;-79
2022/12/06 10:32:53;;;;;;;2.97;2.08;;;;;;;4.91;99.85;102102.13;6280139;22;20016;-79
2022/12/06 10:35:40;;;;;;;4.78;2.38;;;;;;;4.99;100.00;102101.03;6280515;22;20469;-82
2022/12/06 10:38:33;;;;;;;3.45;2.53;;;;;;;5.09;99.47;102103.00;6280657;22;20012;-78
2022/12/06 10:41:17;;;;;;;4.80;2.42;;;;;;;5.08;98.61;102095.44;6264348;22;20535;-78
2022/12/06 10:43:56;;;;;;;6.82;3.22;;;;;;;5.11;98.64;102097.34;6279618;22;20012;-79
2022/12/06 10:49:49;;;;;;;3.90;2.63;;;;;;;5.17;98.07;102101.91;6280262;22;20394;-78
2022/12/06 10:52:37;;;;;;;6.65;3.20;;;;;;;5.24;97.90;102099.28;6280443;22;20040;-78
2022/12/06 10:55:09;;;;;;;5.47;2.55;;;;;;;5.30;97.49;102089.91;6280474;22;20019;-79
2022/12/06 10:58:06;;;;;;;5.85;3.50;;;;;;;5.39;97.11;102092.22;6279259;22;20442;-79
2022/12/06 11:00:49;;;;;;;4.72;3.00;;;;;;;5.46;95.70;102094.88;6279996;22;20016;-78
2022/12/06 11:03:30;;;;;;;2.38;2.17;;;;;;;5.56;96.03;102090.78;6252971;22;20017;-77
2022/12/06 11:06:08;;;;;;;5.38;2.38;;;;;;;5.62;95.71;102097.19;6283436;22;20028;-79
2022/12/06 11:08:41;;;;;;;5.20;2.70;;;;;;;5.68;95.28;102095.72;6281118;22;20078;-79
2022/12/06 11:11:22;;;;;;;3.00;2.50;;;;;;;5.72;95.19;102099.13;6280888;22;20012;-76
2022/12/06 11:14:23;;;;;;;4.72;2.30;;;;;;;5.75;95.11;102100.28;6281685;22;20012;-82
2022/12/06 11:16:59;;;;;;;3.45;2.25;;;;;;;5.77;93.69;102092.72;6228527;22;20335;-82
2022/12/06 11:19:34;;;;;;;2.38;1.95;;;;;;;5.83;92.96;102092.00;6253707;22;20518;-80
2022/12/06 11:22:19;;;;;;;2.58;1.80;;;;;;;5.85;92.85;102094.25;6282496;22;20012;-79
2022/12/06 11:24:57;;;;;;;4.43;2.33;;;;;;;5.83;91.75;102085.94;6281143;22;20078;-80
2022/12/06 11:27:37;;;;;;;5.57;2.40;;;;;;;5.82;91.18;102084.44;6280732;22;20039;-80
2022/12/06 11:30:13;;;;;;;4.18;2.78;;;;;;;5.86;91.05;102082.56;6281071;22;20020;-77
2022/12/06 11:32:49;;;;;;;3.08;2.67;;;;;;;5.84;90.30;102082.94;6281134;22;20458;-79
2022/12/06 11:35:22;;;;;;;4.22;2.33;;;;;;;5.83;90.37;102084.06;6281299;22;20044;-80
2022/12/06 11:37:55;;;;;;;4.40;2.60;;;;;;;5.83;90.40;102075.38;6281160;22;20051;-81
2022/12/06 11:40:26;;;;;;;5.30;2.60;;;;;;;5.85;89.48;102075.75;6253145;22;20489;-81
2022/12/06 11:42:55;;;;;;;6.45;2.97;;;;;;;5.88;90.39;102073.13;6281385;22;20023;-81
2022/12/06 11:45:26;;;;;;;8.10;2.22;;;;;;;5.94;90.73;102066.38;6281092;22;20020;-80
2022/12/06 11:47:54;;;;;;;6.50;2.85;;;;;;;5.94;89.63;102066.38;6281254;22;20071;-80
2022/12/06 11:50:23;;;;;;;3.78;2.03;;;;;;;5.90;89.70;102064.84;6281301;22;20021;-78
2022/12/06 11:53:26;;;;;;;3.08;2.47;;;;;;;5.96;90.40;102058.06;6281444;22;20084;-79
2022/12/06 11:56:02;;;;;;;5.05;2.22;;;;;;;6.02;89.81;102064.47;6275383;22;20493;-79
2022/12/06 11:58:39;;;;;;;6.55;2.25;;;;;;;6.08;89.99;102060.34;6280954;22;20439;-79
2022/12/06 12:01:15;;;;;;;2.75;2.20;;;;;;;6.13;89.32;102057.31;6281286;22;20489;-78
2022/12/06 12:03:43;;;;;;;4.75;2.22;;;;;;;6.14;89.21;102056.19;6280775;22;20035;-78
2022/12/06 12:06:27;;;;;;;3.35;3.00;;;;;;;6.18;89.79;102046.38;6281140;22;20066;-78
2022/12/06 12:08:59;;;;;;;3.05;2.55;;;;;;;6.18;89.43;102054.31;6280782;22;20158;-80
2022/12/06 12:11:36;;;;;;;8.02;2.47;;;;;;;6.18;89.62;102051.66;6280831;22;20023;-80
2022/12/06 12:14:25;;;;;;;5.80;2.30;;;;;;;6.22;89.38;102051.69;6281252;22;20079;-80
2022/12/06 12:16:58;;;;;;;3.40;2.65;;;;;;;6.19;88.41;102060.34;6280933;22;20055;-79
2022/12/06 12:19:36;;;;;;;4.57;2.40;;;;;;;6.19;88.55;102044.50;6280570;22;20012;-79